createdAt,value
2022-11-24T00:00:31.018Z,82.81
2022-11-24T00:03:00.184Z,82.73
2022-11-24T00:05:28.190Z,82.55
2022-11-24T00:07:56.444Z,81.33
2022-11-24T00:10:24.162Z,81.52
2022-11-24T00:12:53.256Z,81.36
2022-11-24T00:15:21.011Z,81.22
2022-11-24T00:17:48.802Z,81.23
2022-11-24T00:20:17.599Z,79.93
2022-11-24T00:22:45.344Z,80.41
2022-11-24T00:25:13.106Z,80.76
2022-11-24T00:27:40.977Z,80.64
2022-11-24T00:30:11.039Z,80.72
2022-11-24T00:32:38.768Z,80.62
2022-11-24T00:35:07.611Z,80.37
2022-11-24T00:37:35.366Z,80.26
2022-11-24T00:40:03.186Z,80.07
2022-11-24T00:42:30.910Z,80.12
2022-11-24T00:44:58.654Z,79.48
2022-11-24T00:47:28.740Z,79.37
2022-11-24T00:49:56.490Z,78.78
2022-11-24T00:52:24.238Z,78.94
2022-11-24T00:54:52.398Z,78.73
2022-11-24T00:57:20.129Z,79.19
2022-11-24T00:59:47.900Z,78.64
2022-11-24T01:02:15.676Z,78.06
2022-11-24T01:04:44.779Z,78.34
2022-11-24T01:07:12.495Z,78.16
2022-11-24T01:09:43.069Z,78.22
2022-11-24T01:12:10.763Z,77.78
2022-11-24T01:14:39.094Z,77.75
2022-11-24T01:17:06.812Z,77.68
2022-11-24T01:19:34.515Z,78.23
2022-11-24T01:22:03.606Z,78.15
2022-11-24T01:24:31.510Z,77.51
2022-11-24T01:27:00.136Z,77.37
2022-11-24T01:29:27.958Z,77.69
2022-11-24T01:31:55.710Z,76.92
2022-11-24T01:34:23.517Z,77.00
2022-11-24T01:36:51.275Z,77.41
2022-11-24T01:39:20.343Z,77.62
2022-11-24T01:41:48.047Z,77.08
2022-11-24T01:44:24.451Z,76.86
2022-11-24T01:46:55.610Z,77.26
2022-11-24T01:49:28.812Z,77.10
2022-11-24T01:52:00.734Z,77.20
2022-11-24T01:54:34.388Z,77.11
2022-11-24T01:57:08.876Z,76.84
2022-11-24T01:59:37.217Z,77.68
2022-11-24T02:02:05.339Z,77.30
2022-11-24T02:04:35.520Z,77.28
2022-11-24T02:07:06.724Z,77.71
2022-11-24T02:09:43.223Z,77.37
2022-11-24T02:12:11.100Z,76.63
2022-11-24T02:14:41.672Z,77.44
2022-11-24T02:17:09.583Z,77.30
2022-11-24T02:19:49.691Z,77.80
2022-11-24T02:22:23.462Z,78.45
2022-11-24T02:24:57.114Z,78.18
2022-11-24T02:27:26.280Z,78.89
2022-11-24T02:29:54.068Z,78.14
2022-11-24T02:32:22.396Z,78.45
2022-11-24T02:34:50.159Z,77.86
2022-11-24T02:37:17.934Z,78.08
2022-11-24T02:39:45.632Z,78.24
2022-11-24T02:42:14.844Z,77.79
2022-11-24T02:44:48.459Z,77.15
2022-11-24T02:47:16.210Z,76.83
2022-11-24T02:49:43.911Z,77.19
2022-11-24T02:52:11.689Z,77.50
2022-11-24T02:54:39.438Z,76.90
2022-11-24T02:57:07.138Z,77.74
2022-11-24T02:59:34.922Z,77.51
2022-11-24T03:02:04.289Z,77.28
2022-11-24T03:04:32.548Z,76.18
2022-11-24T03:07:00.550Z,76.80
2022-11-24T03:09:28.418Z,76.67
2022-11-24T03:11:56.130Z,76.86
2022-11-24T03:14:23.907Z,76.14
2022-11-24T03:16:51.618Z,75.97
2022-11-24T03:19:20.690Z,76.48
2022-11-24T03:21:48.394Z,76.73
2022-11-24T03:24:16.186Z,76.23
2022-11-24T03:26:43.963Z,76.25
2022-11-24T03:29:14.026Z,76.42
2022-11-24T03:31:41.848Z,75.96
2022-11-24T03:34:09.979Z,76.42
2022-11-24T03:36:39.141Z,76.81
2022-11-24T03:39:07.058Z,76.55
2022-11-24T03:41:34.777Z,77.01
2022-11-24T03:44:02.697Z,76.70
2022-11-24T03:46:30.452Z,76.64
2022-11-24T03:48:58.255Z,76.13
2022-11-24T03:51:25.998Z,76.02
2022-11-24T03:53:55.099Z,76.70
2022-11-24T03:56:22.822Z,76.29
2022-11-24T03:58:50.996Z,75.75
2022-11-24T04:01:19.050Z,76.73
2022-11-24T04:03:46.927Z,76.20
2022-11-24T04:06:16.687Z,75.78
2022-11-24T04:08:44.394Z,75.27
2022-11-24T04:11:33.606Z,74.99
2022-11-24T04:14:00.381Z,75.72
2022-11-24T04:16:28.179Z,74.79
2022-11-24T04:18:55.795Z,74.81
2022-11-24T04:21:23.396Z,75.57
2022-11-24T04:23:51.195Z,74.68
2022-11-24T04:26:20.107Z,74.35
2022-11-24T04:28:47.692Z,74.76
2022-11-24T04:31:15.651Z,75.43
2022-11-24T04:33:43.251Z,74.54
2022-11-24T04:36:10.980Z,75.34
2022-11-24T04:39:23.084Z,75.09
2022-11-24T04:41:27.512Z,75.27
2022-11-24T04:43:55.137Z,76.13
2022-11-24T04:46:22.783Z,76.56
2022-11-24T04:48:50.463Z,76.67
2022-11-24T04:51:18.162Z,76.95
2022-11-24T04:53:45.714Z,76.56
2022-11-24T04:56:13.308Z,77.00
2022-11-24T04:58:42.223Z,76.09
2022-11-24T05:01:09.921Z,76.52
2022-11-24T05:03:37.947Z,77.37
2022-11-24T05:06:06.276Z,78.12
2022-11-24T05:08:33.921Z,77.60
2022-11-24T05:11:05.154Z,77.42
2022-11-24T05:13:33.038Z,77.46
2022-11-24T05:16:02.288Z,77.17
2022-11-24T05:18:30.225Z,77.67
2022-11-24T05:20:59.488Z,77.06
2022-11-24T05:23:27.803Z,77.57
2022-11-24T05:25:55.440Z,77.33
2022-11-24T05:28:23.064Z,78.43
2022-11-24T05:30:50.671Z,77.74
2022-11-24T05:33:20.588Z,78.52
2022-11-24T05:35:49.015Z,79.51
2022-11-24T05:38:17.692Z,78.34
2022-11-24T05:40:45.824Z,79.21
2022-11-24T05:43:13.898Z,79.64
2022-11-24T05:45:41.580Z,80.27
2022-11-24T05:48:11.460Z,80.74
2022-11-24T05:50:40.936Z,82.13
2022-11-24T05:53:10.702Z,81.95
2022-11-24T05:55:39.017Z,84.42
2022-11-24T05:58:09.411Z,83.82
2022-11-24T06:00:37.639Z,83.07
2022-11-24T06:03:05.711Z,83.18
2022-11-24T06:05:33.449Z,83.91
2022-11-24T06:08:02.519Z,84.08
2022-11-24T06:10:30.683Z,86.99
2022-11-24T06:12:58.414Z,87.79
2022-11-24T06:15:26.128Z,89.12
2022-11-24T06:17:55.527Z,89.10
2022-11-24T06:20:26.061Z,86.58
2022-11-24T06:22:58.688Z,86.42
2022-11-24T06:25:27.721Z,86.80
2022-11-24T06:27:55.589Z,87.10
2022-11-24T06:30:23.288Z,86.78
2022-11-24T06:32:55.740Z,88.22
2022-11-24T06:35:23.358Z,87.96
2022-11-24T06:37:50.980Z,88.19
2022-11-24T06:40:18.725Z,89.66
2022-11-24T06:42:52.567Z,89.83
2022-11-24T06:45:20.257Z,91.36
2022-11-24T06:47:48.141Z,92.09
2022-11-24T06:50:16.081Z,92.29
2022-11-24T06:52:43.697Z,93.96
2022-11-24T06:55:11.281Z,93.47
2022-11-24T06:57:38.919Z,94.22
2022-11-24T07:00:11.507Z,95.45
2022-11-24T07:02:45.416Z,94.07
2022-11-24T07:05:13.591Z,94.16
2022-11-24T07:07:41.330Z,94.27
2022-11-24T07:10:09.376Z,93.49
2022-11-24T07:12:37.000Z,92.95
2022-11-24T07:15:05.370Z,91.38
2022-11-24T07:17:36.650Z,91.54
2022-11-24T07:20:05.365Z,91.45
2022-11-24T07:22:33.347Z,90.59
2022-11-24T07:25:00.996Z,91.27
2022-11-24T07:27:29.034Z,91.66
2022-11-24T07:29:56.662Z,90.06
2022-11-24T07:32:24.262Z,91.17
2022-11-24T07:34:53.211Z,90.55
2022-11-24T07:37:20.853Z,90.02
2022-11-24T07:39:48.460Z,89.57
2022-11-24T07:42:16.110Z,88.77
2022-11-24T07:44:43.788Z,89.10
2022-11-24T07:47:11.551Z,88.79
2022-11-24T07:49:39.162Z,86.80
2022-11-24T07:52:08.720Z,87.36
2022-11-24T07:54:36.567Z,84.95
2022-11-24T07:57:04.355Z,84.51
2022-11-24T07:59:33.048Z,82.54
2022-11-24T08:02:00.697Z,83.17
2022-11-24T08:04:28.708Z,83.15
2022-11-24T08:06:56.263Z,81.52
2022-11-24T08:09:25.160Z,82.51
2022-11-24T08:11:52.763Z,81.07
2022-11-24T08:14:20.429Z,81.25
2022-11-24T08:16:48.056Z,80.78
2022-11-24T08:19:15.724Z,80.36
2022-11-24T08:21:43.477Z,80.09
2022-11-24T08:24:13.703Z,80.66
2022-11-24T08:26:43.160Z,80.34
2022-11-24T08:29:10.988Z,80.79
2022-11-24T08:31:39.989Z,82.06
2022-11-24T08:34:07.996Z,82.19
2022-11-24T08:36:35.678Z,81.12
2022-11-24T08:39:03.868Z,81.13
2022-11-24T08:41:31.608Z,81.04
2022-11-24T08:44:00.616Z,80.74
2022-11-24T08:46:28.317Z,81.29
2022-11-24T08:48:56.331Z,81.53
2022-11-24T08:51:25.796Z,82.09
2022-11-24T08:53:55.561Z,81.08
2022-11-24T08:56:23.312Z,81.32
2022-11-24T08:58:51.042Z,81.05
2022-11-24T09:01:20.126Z,81.11
2022-11-24T09:03:50.922Z,79.47
2022-11-24T09:06:19.924Z,80.02
2022-11-24T09:08:47.559Z,79.39
2022-11-24T09:11:17.083Z,80.60
2022-11-24T09:13:45.010Z,79.87
2022-11-24T09:16:14.549Z,79.95
2022-11-24T09:18:44.153Z,79.45
2022-11-24T09:21:14.240Z,80.47
2022-11-24T09:23:42.544Z,81.00
2022-11-24T09:26:12.399Z,81.12
2022-11-24T09:28:40.204Z,81.28
2022-11-24T09:31:09.877Z,82.37
2022-11-24T09:33:38.718Z,82.96
2022-11-24T09:36:08.957Z,82.97
2022-11-24T09:38:36.934Z,84.48
2022-11-24T09:41:22.913Z,85.50
2022-11-24T09:44:01.499Z,84.92
2022-11-24T09:46:33.991Z,84.80
2022-11-24T09:49:03.861Z,85.46
2022-11-24T09:51:34.552Z,86.55
2022-11-24T09:54:07.161Z,86.57
2022-11-24T09:56:37.768Z,86.68
2022-11-24T09:59:11.805Z,86.90
2022-11-24T10:01:43.268Z,87.37
2022-11-24T10:04:16.411Z,88.17
2022-11-24T10:06:51.524Z,88.09
2022-11-24T10:09:49.581Z,87.21
2022-11-24T10:12:32.908Z,87.31
2022-11-24T10:15:21.649Z,86.60
2022-11-24T10:18:19.433Z,86.97
2022-11-24T10:20:55.689Z,86.71
2022-11-24T10:23:43.533Z,87.53
2022-11-24T10:26:19.222Z,87.29
2022-11-24T10:28:53.876Z,86.10
2022-11-24T10:31:30.467Z,84.42
2022-11-24T10:34:02.450Z,84.36
2022-11-24T10:36:38.703Z,84.57
2022-11-24T10:39:24.724Z,84.36
2022-11-24T10:41:57.886Z,83.42
2022-11-24T10:44:25.964Z,82.38
2022-11-24T10:46:53.666Z,86.31
2022-11-24T10:49:26.358Z,82.10
2022-11-24T10:52:05.085Z,81.65
2022-11-24T10:54:35.803Z,81.16
2022-11-24T10:57:03.995Z,81.53
2022-11-24T10:59:37.869Z,79.97
2022-11-24T11:02:34.716Z,80.50
2022-11-24T11:05:28.349Z,76.24
2022-11-24T11:08:19.674Z,75.88
2022-11-24T11:10:50.573Z,76.89
2022-11-24T11:13:27.515Z,76.59
2022-11-24T11:15:56.065Z,75.46
2022-11-24T11:18:31.201Z,74.94
2022-11-24T11:21:02.782Z,76.73
2022-11-24T11:23:34.410Z,76.14
2022-11-24T11:26:33.121Z,75.54
2022-11-24T11:34:47.746Z,76.36
2022-11-24T11:37:16.784Z,75.42
2022-11-24T11:39:49.073Z,75.07
2022-11-24T11:43:00.103Z,74.37
2022-11-24T11:45:17.225Z,74.04
2022-11-24T11:47:48.821Z,72.63
2022-11-24T11:50:18.557Z,74.03
2022-11-24T11:53:06.215Z,74.50
2022-11-24T11:55:49.906Z,75.29
2022-11-24T11:58:51.015Z,74.46
2022-11-24T12:01:32.394Z,73.20
2022-11-24T12:04:14.348Z,73.03
2022-11-24T12:07:15.729Z,74.07
2022-11-24T12:09:57.165Z,74.02
2022-11-24T12:13:02.383Z,74.02
2022-11-24T12:15:37.004Z,73.80
2022-11-24T12:18:33.505Z,74.16
2022-11-24T12:21:13.170Z,73.61
2022-11-24T12:23:53.986Z,74.42
2022-11-24T12:26:30.882Z,73.49
2022-11-24T12:29:14.950Z,72.53
2022-11-24T12:31:53.401Z,72.05
2022-11-24T12:34:46.238Z,70.84
2022-11-24T12:37:29.710Z,69.56
2022-11-24T12:40:06.448Z,70.91
2022-11-24T12:42:44.639Z,65.56
2022-11-24T12:45:16.376Z,62.66
2022-11-24T12:48:04.502Z,62.09
2022-11-24T12:50:37.570Z,60.97
2022-11-24T12:53:11.214Z,61.33
2022-11-24T12:55:40.161Z,60.80
2022-11-24T12:58:14.695Z,60.09
2022-11-24T13:00:54.269Z,61.28
2022-11-24T13:03:37.223Z,61.64
2022-11-24T13:06:13.967Z,62.58
2022-11-24T13:08:42.135Z,62.68
2022-11-24T13:11:35.409Z,61.98
2022-11-24T13:14:07.540Z,63.31
2022-11-24T13:16:41.081Z,63.66
2022-11-24T13:19:23.827Z,61.65
2022-11-24T13:22:02.364Z,59.38
2022-11-24T13:24:32.022Z,59.49
2022-11-24T13:27:42.165Z,61.08
2022-11-24T13:30:54.145Z,61.88
2022-11-24T13:33:45.800Z,61.90
2022-11-24T13:36:53.088Z,61.65
2022-11-24T13:39:22.496Z,61.43
2022-11-24T13:42:42.269Z,61.05
2022-11-24T13:44:59.935Z,60.70
2022-11-24T13:47:39.031Z,58.47
2022-11-24T13:50:10.259Z,58.62
2022-11-24T13:52:48.258Z,59.20
2022-11-24T13:55:29.323Z,59.59
2022-11-24T13:58:00.765Z,60.07
2022-11-24T14:00:30.837Z,61.75
2022-11-24T14:03:02.031Z,62.41
2022-11-24T14:05:37.200Z,62.70
2022-11-24T14:08:09.348Z,63.16
2022-11-24T14:10:38.850Z,64.12
2022-11-24T14:13:26.010Z,64.47
2022-11-24T14:16:04.600Z,65.20
2022-11-24T14:18:32.972Z,65.30
2022-11-24T14:21:03.044Z,66.28
2022-11-24T14:23:32.439Z,66.87
2022-11-24T14:26:00.097Z,66.80
2022-11-24T14:28:29.985Z,66.04
2022-11-24T14:31:10.541Z,65.23
2022-11-24T14:33:38.218Z,64.56
2022-11-24T14:36:06.341Z,63.92
2022-11-24T14:38:35.431Z,63.56
2022-11-24T14:41:17.500Z,62.85
2022-11-24T14:43:45.169Z,63.67
2022-11-24T14:46:20.025Z,63.17
2022-11-24T14:48:49.971Z,63.25
2022-11-24T14:51:23.022Z,63.60
2022-11-24T14:53:54.513Z,63.56
2022-11-24T14:56:28.178Z,62.99
2022-11-24T14:58:57.280Z,63.29
2022-11-24T15:01:32.988Z,63.18
2022-11-24T15:07:19.619Z,64.26
2022-11-24T15:09:54.000Z,65.52
2022-11-24T15:12:28.961Z,65.09
2022-11-24T15:15:01.563Z,65.65
2022-11-24T15:17:30.847Z,65.42
2022-11-24T15:20:01.823Z,65.64
2022-11-24T15:22:37.046Z,66.16
2022-11-24T15:25:31.228Z,67.34
2022-11-24T15:27:58.875Z,67.94
2022-11-24T15:30:27.066Z,68.42
2022-11-24T15:32:56.371Z,68.49
2022-11-24T15:35:25.684Z,69.41
2022-11-24T15:37:53.488Z,70.28
2022-11-24T15:40:21.165Z,71.03
2022-11-24T15:42:53.920Z,72.40
2022-11-24T15:45:23.792Z,73.61
2022-11-24T15:47:51.867Z,74.84
2022-11-24T15:50:20.167Z,85.93
2022-11-24T15:52:49.169Z,79.18
2022-11-24T15:55:23.803Z,77.97
2022-11-24T15:57:52.771Z,77.87
2022-11-24T16:00:22.749Z,78.30
2022-11-24T16:02:50.626Z,79.69
2022-11-24T16:05:19.480Z,80.22
2022-11-24T16:07:47.343Z,80.78
2022-11-24T16:10:25.272Z,81.24
2022-11-24T16:12:54.502Z,81.88
2022-11-24T16:15:22.310Z,82.40
2022-11-24T16:17:50.143Z,82.82
2022-11-24T16:20:18.162Z,83.76
2022-11-24T16:22:45.864Z,84.81
2022-11-24T16:25:14.736Z,84.41
2022-11-24T16:27:42.363Z,85.66
2022-11-24T16:30:14.026Z,85.76
2022-11-24T16:32:41.731Z,85.22
2022-11-24T16:35:09.986Z,86.01
2022-11-24T16:37:37.851Z,86.50
2022-11-24T16:40:07.088Z,86.78
2022-11-24T16:42:34.710Z,86.64
2022-11-24T16:45:02.632Z,87.86
2022-11-24T16:47:32.504Z,88.15
2022-11-24T16:50:00.184Z,88.25
2022-11-24T16:52:28.867Z,89.19
2022-11-24T16:54:56.576Z,89.57
2022-11-24T16:57:24.225Z,89.70
2022-11-24T16:59:53.495Z,90.06
2022-11-24T17:02:21.127Z,90.69
2022-11-24T17:04:52.198Z,90.83
2022-11-24T17:07:20.272Z,91.15
2022-11-24T17:09:51.483Z,91.56
2022-11-24T17:12:19.089Z,90.84
2022-11-24T17:15:16.335Z,90.85
2022-11-24T17:17:55.210Z,91.60
2022-11-24T17:20:27.476Z,91.13
2022-11-24T17:22:55.577Z,90.78
2022-11-24T17:25:23.238Z,91.27
2022-11-24T17:27:51.602Z,91.73
2022-11-24T17:30:19.387Z,92.66
2022-11-24T17:32:51.240Z,92.29
2022-11-24T17:35:22.934Z,92.55
2022-11-24T17:37:51.892Z,92.67
2022-11-24T17:40:27.893Z,93.14
2022-11-24T17:42:59.001Z,91.94
2022-11-24T17:45:28.380Z,92.54
2022-11-24T17:47:56.729Z,93.35
2022-11-24T17:50:26.322Z,93.66
2022-11-24T17:52:55.572Z,93.14
2022-11-24T17:55:23.485Z,92.92
2022-11-24T17:57:51.560Z,93.19
2022-11-24T18:00:20.084Z,92.89
2022-11-24T18:02:47.741Z,93.17
2022-11-24T18:05:15.583Z,93.57
2022-11-24T18:07:43.259Z,93.92
2022-11-24T18:10:12.551Z,93.90
2022-11-24T18:12:40.176Z,93.62
2022-11-24T18:15:08.887Z,94.54
2022-11-24T18:17:36.474Z,94.61
2022-11-24T18:20:04.162Z,94.32
2022-11-24T18:22:57.837Z,94.47
2022-11-24T18:25:21.506Z,94.03
2022-11-24T18:27:49.517Z,94.81
2022-11-24T18:30:17.515Z,94.24
2022-11-24T18:32:45.171Z,94.03
2022-11-24T18:35:12.781Z,93.91
2022-11-24T18:37:44.062Z,94.26
2022-11-24T18:40:12.099Z,94.13
2022-11-24T18:42:41.030Z,93.79
2022-11-24T18:45:09.315Z,94.42
2022-11-24T18:47:36.899Z,93.73
2022-11-24T18:50:05.213Z,94.37
2022-11-24T18:52:32.810Z,93.43
2022-11-24T18:55:03.781Z,95.09
2022-11-24T18:57:31.718Z,94.66
2022-11-24T19:00:00.640Z,95.00
2022-11-24T19:02:28.344Z,94.89
2022-11-24T19:04:56.046Z,94.07
2022-11-24T19:07:23.678Z,93.25
2022-11-24T19:09:51.347Z,94.88
2022-11-24T19:12:18.995Z,92.88
2022-11-24T19:14:46.589Z,94.41
2022-11-24T19:17:15.583Z,94.89
2022-11-24T19:19:43.208Z,94.14
2022-11-24T19:22:10.854Z,94.25
2022-11-24T19:24:38.791Z,94.38
2022-11-24T19:27:06.395Z,93.95
2022-11-24T19:29:36.052Z,94.15
2022-11-24T19:32:06.921Z,95.18
2022-11-24T19:34:36.269Z,94.27
2022-11-24T19:37:04.590Z,94.55
2022-11-24T19:39:32.275Z,95.31
2022-11-24T19:41:59.833Z,94.94
2022-11-24T19:44:27.454Z,95.27
2022-11-24T19:46:55.018Z,95.35
2022-11-24T19:49:22.638Z,94.56
2022-11-24T19:51:51.529Z,95.43
2022-11-24T19:54:19.365Z,95.53
2022-11-24T19:56:46.992Z,95.73
2022-11-24T19:59:15.207Z,95.77
2022-11-24T20:01:43.444Z,96.13
2022-11-24T20:04:13.509Z,96.69
2022-11-24T20:06:43.456Z,95.39
2022-11-24T20:09:13.865Z,96.53
2022-11-24T20:11:42.351Z,95.96
2022-11-24T20:14:12.417Z,95.69
2022-11-24T20:16:40.175Z,95.80
2022-11-24T20:19:11.632Z,95.34
2022-11-24T20:21:41.390Z,95.96
2022-11-24T20:24:14.028Z,96.40
2022-11-24T20:26:43.985Z,95.99
2022-11-24T20:29:12.810Z,96.32
2022-11-24T20:31:42.537Z,95.79
2022-11-24T20:34:10.474Z,96.17
2022-11-24T20:36:40.696Z,96.16
2022-11-24T20:39:10.260Z,97.15
2022-11-24T20:41:40.121Z,97.53
2022-11-24T20:44:10.426Z,96.92
2022-11-24T20:46:40.156Z,96.91
2022-11-24T20:49:09.290Z,97.03
2022-11-24T20:51:41.894Z,97.21
2022-11-24T20:54:10.871Z,97.37
2022-11-24T20:56:41.469Z,97.94
2022-11-24T20:59:10.034Z,97.57
2022-11-24T21:01:39.135Z,97.32
2022-11-24T21:04:09.001Z,96.66
2022-11-24T21:06:37.630Z,98.11
2022-11-24T21:09:06.108Z,97.92
2022-11-24T21:11:33.798Z,97.15
2022-11-24T21:14:03.204Z,97.59
2022-11-24T21:16:32.277Z,97.32
2022-11-24T21:19:01.374Z,97.67
2022-11-24T21:21:33.655Z,98.00
2022-11-24T21:24:01.531Z,97.63
2022-11-24T21:26:29.424Z,98.01
2022-11-24T21:28:57.693Z,97.77
2022-11-24T21:31:26.662Z,97.24
2022-11-24T21:33:55.263Z,97.44
2022-11-24T21:36:24.776Z,97.42
2022-11-24T21:38:53.693Z,97.61
2022-11-24T21:41:24.159Z,98.28
2022-11-24T21:43:55.425Z,98.06
2022-11-24T21:46:23.498Z,98.19
2022-11-24T21:48:52.481Z,98.71
2022-11-24T21:51:21.728Z,98.44
2022-11-24T21:53:49.908Z,98.67
2022-11-24T21:56:19.332Z,98.73
2022-11-24T21:58:50.441Z,98.07
2022-11-24T22:01:19.962Z,98.76
2022-11-24T22:03:47.630Z,98.65
2022-11-24T22:06:19.036Z,98.83
2022-11-24T22:08:47.686Z,98.88
2022-11-24T22:11:17.035Z,98.34
2022-11-24T22:13:45.606Z,98.92
2022-11-24T22:16:15.256Z,99.01
2022-11-24T22:18:44.620Z,99.07
2022-11-24T22:21:14.001Z,99.09
2022-11-24T22:23:43.635Z,100.00
2022-11-24T22:26:14.265Z,100.00
2022-11-24T22:28:42.887Z,100.00
2022-11-24T22:31:12.442Z,100.00
2022-11-24T22:33:40.238Z,99.61
2022-11-24T22:36:08.883Z,99.54
2022-11-24T22:38:36.995Z,99.10
2022-11-24T22:41:08.048Z,99.25
2022-11-24T22:43:37.126Z,98.58
2022-11-24T22:46:05.841Z,99.08
2022-11-24T22:48:34.114Z,99.55
2022-11-24T22:51:03.127Z,99.41
2022-11-24T22:53:30.793Z,99.22
2022-11-24T22:56:02.258Z,98.94
2022-11-24T22:58:31.845Z,98.97
2022-11-24T23:01:06.088Z,99.46
2022-11-24T23:03:34.727Z,99.30
2022-11-24T23:06:02.813Z,98.22
2022-11-24T23:08:32.631Z,98.75
2022-11-24T23:11:01.557Z,98.53
2022-11-24T23:13:30.855Z,99.41
2022-11-24T23:16:02.595Z,98.75
2022-11-24T23:18:30.635Z,99.53
2022-11-24T23:20:58.226Z,99.68
2022-11-24T23:23:25.813Z,98.89
2022-11-24T23:25:53.381Z,98.78
2022-11-24T23:28:20.958Z,99.54
2022-11-24T23:30:49.863Z,99.24
2022-11-24T23:33:17.493Z,99.61
2022-11-24T23:35:45.120Z,99.48
2022-11-24T23:38:12.757Z,99.28
2022-11-24T23:40:40.343Z,99.28
2022-11-24T23:43:07.943Z,98.50
2022-11-24T23:45:35.498Z,99.11
2022-11-24T23:48:05.192Z,99.33
2022-11-24T23:50:32.857Z,99.24
2022-11-24T23:53:00.409Z,99.20
2022-11-24T23:55:28.163Z,99.93
2022-11-24T23:57:55.793Z,99.96
